General Leobardo C Ruiz International Airport
MMZC : now visible

Airfield :











YOU CAN JOIN US ON...

 
LOGIN :

Register | Disclaimer

   EN    FR    IT 

 









Legend :    VFR   Marginal VFR   IFR   Intensive IFR   Very Intensive IFR
Visi :
Ceiling :
>= 8 km
>= 3000ft
5 to 8 km
1000 to 3000 ft
1500m to 5 km
500 to 1000 ft
800 to 1500m
200 to 500 ft
< 800m
< 200 ft
Symbols :   Thunderstorms  Fog  Heavy snow  Heavy precipitations  Wind > 20 kt






- Airport Elevation : 7141 ft
- IATA code : ZCL


MMZC - General Leobardo C Ruiz International

METAR N/A
TAF TAF MMZC
Valid from the 17 at 06:00 until the 18 at 12:00 UTC


170513Z 1706/1812 00000KT 5SM -RA OVC030 TX22/1720Z TN14/1712Z
TEMPO 1708/1712 4SM -RA BKN020
FM171300 00000KT 6SM HZ SCT030 BKN080
FM171800 12010KT P6SM BKN030 BKN080
FM180000 16005KT 5SM -RA BKN030 OVC070
TEMPO 1801/1805 4SM TSRA BKN020CB
FM180800 00000KT P6SM BKN030 BKN080
MMFR FIR / North America



MET'MAP, your aeronautical weather chart ! - Copyright ORBIFLY December 2007 - Disclaimer

ORBIFLY MET'MAP TEAM :

Programming & Development : Alexandra Zaïnal
Concept & original design : Baudouin d'Aumeries
Assistance for programming : Marc-Olivier Méhu
Technical & hardware support : Manuel Goepfert

Contact : metmap@orbifly.com




SOURCES & CREDITS :

   NOAA       Earth
Advisory